createdAt,value
2018-02-03T00:00:38.570Z,77.10
2018-02-03T00:03:06.053Z,77.20
2018-02-03T00:05:33.501Z,77.20
2018-02-03T00:08:00.973Z,77.30
2018-02-03T00:10:29.198Z,77.30
2018-02-03T00:12:56.666Z,77.30
2018-02-03T00:15:24.121Z,77.30
2018-02-03T00:17:51.602Z,77.40
2018-02-03T00:20:19.058Z,77.30
2018-02-03T00:22:46.509Z,77.50
2018-02-03T00:25:13.998Z,77.50
2018-02-03T00:27:42.237Z,77.40
2018-02-03T00:30:09.725Z,77.40
2018-02-03T00:32:37.208Z,77.30
2018-02-03T00:35:05.459Z,77.50
2018-02-03T00:37:32.905Z,77.50
2018-02-03T00:40:00.352Z,77.50
2018-02-03T00:42:27.827Z,77.50
2018-02-03T00:44:55.308Z,77.40
2018-02-03T00:47:23.545Z,77.50
2018-02-03T00:49:51.048Z,77.50
2018-02-03T00:52:19.264Z,77.60
2018-02-03T00:54:46.837Z,77.60
2018-02-03T00:57:14.302Z,77.50
2018-02-03T00:59:41.785Z,77.60
2018-02-03T01:02:09.250Z,77.50
2018-02-03T01:04:36.769Z,77.50
2018-02-03T01:07:04.230Z,77.50
2018-02-03T01:09:31.685Z,77.50
2018-02-03T01:11:59.161Z,77.40
2018-02-03T01:14:26.664Z,77.40
2018-02-03T01:16:54.121Z,77.40
2018-02-03T01:19:21.595Z,77.40
2018-02-03T01:21:49.102Z,77.40
2018-02-03T01:24:16.590Z,77.40
2018-02-03T01:26:44.066Z,77.30
2018-02-03T01:29:11.607Z,77.30
2018-02-03T01:31:39.850Z,77.30
2018-02-03T01:34:07.309Z,77.30
2018-02-03T01:36:34.806Z,77.10
2018-02-03T01:39:02.266Z,77.20
2018-02-03T01:41:29.709Z,77.10
2018-02-03T01:43:57.964Z,77.20
2018-02-03T01:46:25.416Z,77.10
2018-02-03T01:48:52.893Z,77.10
2018-02-03T01:51:21.146Z,77.20
2018-02-03T01:53:48.645Z,77.10
2018-02-03T01:56:16.890Z,77.30
2018-02-03T01:58:44.377Z,77.30
2018-02-03T02:01:12.617Z,77.10
2018-02-03T02:03:40.086Z,77.10
2018-02-03T02:06:07.561Z,77.20
2018-02-03T02:08:35.809Z,77.10
2018-02-03T02:11:03.295Z,77.00
2018-02-03T02:13:31.542Z,77.20
2018-02-03T02:15:59.007Z,77.20
2018-02-03T02:18:26.484Z,77.10
2018-02-03T02:20:54.748Z,77.10
2018-02-03T02:23:22.208Z,77.00
2018-02-03T02:25:49.666Z,77.20
2018-02-03T02:28:17.158Z,76.80
2018-02-03T02:30:44.645Z,77.80
2018-02-03T02:33:12.125Z,77.30
2018-02-03T02:35:39.576Z,77.20
2018-02-03T02:38:07.038Z,78.10
2018-02-03T02:40:34.521Z,77.30
2018-02-03T02:43:01.974Z,77.30
2018-02-03T02:45:29.450Z,77.40
2018-02-03T02:47:56.906Z,77.20
2018-02-03T02:50:24.386Z,77.30
2018-02-03T02:52:51.841Z,77.30
2018-02-03T02:55:19.294Z,77.50
2018-02-03T02:57:46.786Z,77.60
2018-02-03T03:00:14.259Z,77.40
2018-02-03T03:02:41.709Z,77.50
2018-02-03T03:05:09.177Z,77.60
2018-02-03T03:07:36.662Z,77.60
2018-02-03T03:10:04.914Z,77.50
2018-02-03T03:12:33.232Z,78.30
2018-02-03T03:15:01.460Z,77.50
2018-02-03T03:17:28.946Z,77.50
2018-02-03T03:19:56.660Z,77.60
2018-02-03T03:22:24.146Z,77.60
2018-02-03T03:24:51.654Z,77.60
2018-02-03T03:27:19.122Z,77.70
2018-02-03T03:29:46.594Z,77.70
2018-02-03T03:32:14.086Z,77.60
2018-02-03T03:34:41.554Z,77.60
2018-02-03T03:37:09.032Z,77.60
2018-02-03T03:39:37.253Z,77.70
2018-02-03T03:42:04.740Z,77.50
2018-02-03T03:44:32.201Z,77.70
2018-02-03T03:46:59.670Z,77.60
2018-02-03T03:49:27.157Z,77.80
2018-02-03T03:51:54.617Z,77.80
2018-02-03T03:54:22.094Z,77.80
2018-02-03T03:56:49.573Z,77.90
2018-02-03T03:59:17.050Z,77.90
2018-02-03T04:01:44.548Z,77.80
2018-02-03T04:04:12.026Z,77.80
2018-02-03T04:06:39.488Z,77.60
2018-02-03T04:09:06.965Z,77.50
2018-02-03T04:11:34.450Z,77.60
2018-02-03T04:14:01.925Z,77.70
2018-02-03T04:16:30.150Z,77.70
2018-02-03T04:18:57.653Z,77.60
2018-02-03T04:21:25.915Z,77.80
2018-02-03T04:23:53.447Z,77.80
2018-02-03T04:26:20.901Z,77.80
2018-02-03T04:28:48.400Z,77.80
2018-02-03T04:31:16.098Z,77.90
2018-02-03T04:33:43.569Z,77.90
2018-02-03T04:36:11.042Z,78.00
2018-02-03T04:38:39.294Z,78.00
2018-02-03T04:41:06.750Z,78.00
2018-02-03T04:43:34.326Z,78.00
2018-02-03T04:46:01.791Z,77.90
2018-02-03T04:48:29.247Z,77.80
2018-02-03T04:50:56.731Z,77.80
2018-02-03T04:53:24.184Z,77.80
2018-02-03T04:55:51.665Z,77.90
2018-02-03T04:58:19.126Z,78.00
2018-02-03T05:00:46.581Z,78.00
2018-02-03T05:03:14.082Z,78.10
2018-02-03T05:05:41.552Z,78.10
2018-02-03T05:08:09.045Z,78.20
2018-02-03T05:10:36.533Z,78.10
2018-02-03T05:13:04.799Z,78.20
2018-02-03T05:15:33.038Z,78.20
2018-02-03T05:18:00.518Z,78.20
2018-02-03T05:20:28.052Z,78.30
2018-02-03T05:22:55.500Z,78.30
2018-02-03T05:25:22.977Z,78.20
2018-02-03T05:27:50.477Z,78.20
2018-02-03T05:30:17.982Z,78.20
2018-02-03T05:32:45.441Z,78.20
2018-02-03T05:35:12.901Z,78.20
2018-02-03T05:37:40.386Z,78.20
2018-02-03T05:40:07.899Z,78.20
2018-02-03T05:42:35.365Z,78.20
2018-02-03T05:45:13.553Z,78.20
2018-02-03T05:47:41.051Z,78.10
2018-02-03T05:50:08.501Z,78.10
2018-02-03T05:52:36.737Z,78.10
2018-02-03T05:55:04.221Z,78.10
2018-02-03T05:57:31.677Z,78.10
2018-02-03T05:59:59.170Z,78.10
2018-02-03T06:02:26.645Z,78.10
2018-02-03T06:04:54.109Z,78.10
2018-02-03T06:07:22.383Z,78.00
2018-02-03T06:09:50.667Z,78.10
2018-02-03T06:12:18.894Z,78.00
2018-02-03T06:14:46.385Z,78.00
2018-02-03T06:17:13.842Z,78.00
2018-02-03T06:19:41.298Z,78.00
2018-02-03T06:22:08.772Z,78.70
2018-02-03T06:24:37.002Z,77.80
2018-02-03T06:27:04.491Z,77.60
2018-02-03T06:29:31.961Z,77.60
2018-02-03T06:32:00.213Z,77.80
2018-02-03T06:34:27.691Z,77.80
2018-02-03T06:36:55.152Z,77.90
2018-02-03T06:39:22.737Z,78.00
2018-02-03T06:41:50.188Z,78.00
2018-02-03T06:44:17.674Z,78.70
2018-02-03T06:46:45.237Z,78.00
2018-02-03T06:49:12.687Z,77.80
2018-02-03T06:51:40.188Z,77.70
2018-02-03T06:54:07.646Z,77.70
2018-02-03T06:56:35.102Z,77.80
2018-02-03T06:59:02.585Z,77.90
2018-02-03T07:01:30.841Z,78.10
2018-02-03T07:03:58.326Z,78.00
2018-02-03T07:06:25.787Z,78.00
2018-02-03T07:08:53.246Z,78.10
2018-02-03T07:11:21.539Z,78.10
2018-02-03T07:13:48.985Z,77.90
2018-02-03T07:16:16.477Z,78.10
2018-02-03T07:18:43.950Z,78.10
2018-02-03T07:21:11.425Z,78.00
2018-02-03T07:23:38.916Z,77.90
2018-02-03T07:26:07.145Z,78.00
2018-02-03T07:28:34.598Z,77.90
2018-02-03T07:31:02.083Z,77.90
2018-02-03T07:33:29.550Z,78.00
2018-02-03T07:35:57.022Z,77.90
2018-02-03T07:38:25.423Z,78.10
2018-02-03T07:40:52.904Z,78.00
2018-02-03T07:43:20.363Z,78.20
2018-02-03T07:45:47.823Z,78.30
2018-02-03T07:48:15.293Z,78.10
2018-02-03T07:50:42.754Z,78.10
2018-02-03T07:53:10.229Z,77.90
2018-02-03T07:55:38.009Z,78.00
2018-02-03T07:58:07.620Z,77.90
2018-02-03T08:00:36.264Z,77.80
2018-02-03T08:03:03.762Z,77.80
2018-02-03T08:05:32.265Z,77.90
2018-02-03T08:08:00.165Z,77.70
2018-02-03T08:10:27.883Z,77.70
2018-02-03T08:12:55.494Z,77.70
2018-02-03T08:15:23.117Z,77.50
2018-02-03T08:17:50.576Z,77.60
2018-02-03T08:20:18.193Z,77.60
2018-02-03T08:22:45.801Z,77.40
2018-02-03T08:25:14.037Z,77.30
2018-02-03T08:27:41.612Z,77.30
2018-02-03T08:30:09.256Z,77.10
2018-02-03T08:32:36.714Z,76.90
2018-02-03T08:35:04.179Z,77.10
2018-02-03T08:37:31.699Z,77.10
2018-02-03T08:39:59.134Z,76.80
2018-02-03T08:42:26.768Z,76.80
2018-02-03T08:44:54.233Z,76.60
2018-02-03T08:47:21.701Z,76.60
2018-02-03T08:49:49.165Z,76.60
2018-02-03T08:52:16.665Z,76.40
2018-02-03T08:54:44.249Z,76.20
2018-02-03T08:57:11.697Z,75.90
2018-02-03T08:59:39.190Z,75.70
2018-02-03T09:02:07.679Z,75.90
2018-02-03T09:04:35.180Z,75.80
2018-02-03T09:07:02.778Z,75.60
2018-02-03T09:09:30.285Z,75.70
2018-02-03T09:12:06.520Z,75.70
2018-02-03T09:14:34.950Z,75.70
2018-02-03T09:17:02.522Z,75.70
2018-02-03T09:19:30.225Z,75.80
2018-02-03T09:21:57.881Z,75.70
2018-02-03T09:24:25.716Z,75.80
2018-02-03T09:26:53.186Z,76.10
2018-02-03T09:29:21.044Z,76.10
2018-02-03T09:31:48.627Z,75.90
2018-02-03T09:34:16.473Z,75.70
2018-02-03T09:36:44.849Z,75.90
2018-02-03T09:39:12.301Z,75.70
2018-02-03T09:41:40.203Z,75.50
2018-02-03T09:44:07.860Z,75.20
2018-02-03T09:46:35.544Z,75.40
2018-02-03T09:49:03.201Z,75.10
2018-02-03T09:51:31.473Z,75.20
2018-02-03T09:53:59.037Z,75.00
2018-02-03T09:56:27.403Z,75.30
2018-02-03T09:58:55.637Z,75.40
2018-02-03T10:01:23.322Z,75.40
2018-02-03T10:03:50.876Z,75.50
2018-02-03T10:06:18.378Z,75.40
2018-02-03T10:08:46.623Z,75.20
2018-02-03T10:11:14.302Z,75.10
2018-02-03T10:13:42.019Z,75.20
2018-02-03T10:16:09.486Z,74.90
2018-02-03T10:18:37.265Z,74.90
2018-02-03T10:21:04.932Z,74.80
2018-02-03T10:23:32.441Z,74.70
2018-02-03T10:25:59.950Z,74.80
2018-02-03T10:28:27.502Z,75.20
2018-02-03T10:30:55.117Z,74.10
2018-02-03T10:33:22.673Z,74.10
2018-02-03T10:35:50.260Z,74.20
2018-02-03T10:38:17.974Z,74.30
2018-02-03T10:40:45.546Z,74.30
2018-02-03T10:43:13.015Z,74.10
2018-02-03T10:45:41.390Z,74.40
2018-02-03T10:48:08.878Z,74.40
2018-02-03T10:50:36.379Z,74.40
2018-02-03T10:53:03.833Z,74.50
2018-02-03T10:55:31.403Z,74.60
2018-02-03T10:57:58.886Z,74.50
2018-02-03T11:03:28.987Z,74.20
2018-02-03T11:05:56.469Z,74.30
2018-02-03T11:08:23.949Z,74.00
2018-02-03T11:10:51.435Z,73.90
2018-02-03T11:13:18.965Z,73.70
2018-02-03T11:15:47.210Z,74.10
2018-02-03T11:18:14.710Z,74.10
2018-02-03T11:20:42.213Z,74.10
2018-02-03T11:23:09.729Z,73.90
2018-02-03T11:25:37.181Z,74.00
2018-02-03T11:28:04.674Z,74.20
2018-02-03T11:30:32.125Z,74.50
2018-02-03T11:32:59.569Z,74.10
2018-02-03T11:35:27.405Z,74.20
2018-02-03T11:37:55.261Z,74.10
2018-02-03T11:40:24.003Z,74.10
2018-02-03T11:42:51.770Z,74.10
2018-02-03T11:45:19.241Z,73.80
2018-02-03T11:47:46.725Z,73.80
2018-02-03T11:50:14.188Z,73.60
2018-02-03T11:52:41.662Z,73.30
2018-02-03T11:55:09.887Z,72.70
2018-02-03T11:57:37.458Z,72.70
2018-02-03T12:00:04.944Z,72.60
2018-02-03T12:02:33.308Z,72.10
2018-02-03T12:05:00.782Z,71.80
2018-02-03T12:07:28.249Z,71.60
2018-02-03T12:09:56.497Z,72.00
2018-02-03T12:12:24.001Z,71.80
2018-02-03T12:14:52.325Z,71.20
2018-02-03T12:17:19.800Z,71.20
2018-02-03T12:19:47.289Z,71.70
2018-02-03T12:22:14.749Z,71.70
2018-02-03T12:24:42.378Z,71.50
2018-02-03T12:27:09.865Z,71.70
2018-02-03T12:29:37.501Z,71.80
2018-02-03T12:32:05.154Z,71.80
2018-02-03T12:34:32.607Z,72.30
2018-02-03T12:37:00.073Z,71.30
2018-02-03T12:39:27.561Z,71.40
2018-02-03T12:41:55.829Z,70.90
2018-02-03T12:44:23.282Z,70.90
2018-02-03T12:46:50.778Z,70.70
2018-02-03T12:49:18.257Z,70.60
2018-02-03T12:51:45.744Z,70.40
2018-02-03T12:54:13.209Z,70.50
2018-02-03T12:56:40.689Z,70.90
2018-02-03T12:59:09.243Z,70.60
2018-02-03T13:01:37.849Z,70.60
2018-02-03T13:04:05.300Z,70.60
2018-02-03T13:06:33.569Z,71.10
2018-02-03T13:09:01.504Z,70.90
2018-02-03T13:11:29.027Z,71.70
2018-02-03T13:13:57.273Z,71.10
2018-02-03T13:16:24.750Z,71.10
2018-02-03T13:18:52.237Z,71.30
2018-02-03T13:21:19.718Z,71.50
2018-02-03T13:23:47.273Z,71.10
2018-02-03T13:26:14.776Z,70.80
2018-02-03T13:28:42.296Z,71.30
2018-02-03T13:31:09.777Z,71.40
2018-02-03T13:33:37.268Z,71.50
2018-02-03T13:36:05.517Z,71.50
2018-02-03T13:38:33.007Z,71.40
2018-02-03T13:41:01.341Z,71.70
2018-02-03T13:43:28.846Z,71.60
2018-02-03T13:45:56.321Z,71.70
2018-02-03T13:48:23.830Z,71.90
2018-02-03T13:50:51.348Z,71.90
2018-02-03T13:53:18.826Z,71.70
2018-02-03T13:55:46.321Z,71.90
2018-02-03T13:58:13.787Z,72.00
2018-02-03T14:00:42.021Z,72.40
2018-02-03T14:03:09.529Z,72.10
2018-02-03T14:05:37.791Z,72.90
2018-02-03T14:08:05.369Z,72.10
2018-02-03T14:10:33.622Z,72.00
2018-02-03T14:13:01.173Z,71.90
2018-02-03T14:15:28.653Z,72.10
2018-02-03T14:17:56.893Z,71.40
2018-02-03T14:20:24.382Z,72.00
2018-02-03T14:22:51.853Z,72.30
2018-02-03T14:25:19.333Z,72.20
2018-02-03T14:27:46.861Z,71.80
2018-02-03T14:30:14.383Z,71.70
2018-02-03T14:32:41.848Z,71.70
2018-02-03T14:35:09.621Z,71.80
2018-02-03T14:37:37.207Z,71.80
2018-02-03T14:40:05.631Z,71.90
2018-02-03T14:42:33.189Z,71.70
2018-02-03T14:45:00.633Z,72.00
2018-02-03T14:47:28.867Z,72.20
2018-02-03T14:49:56.345Z,72.20
2018-02-03T14:52:24.626Z,71.90
2018-02-03T14:54:52.105Z,71.80
2018-02-03T14:57:19.582Z,71.80
2018-02-03T14:59:47.045Z,71.70
2018-02-03T15:02:14.513Z,71.70
2018-02-03T15:04:42.017Z,71.50
2018-02-03T15:07:09.821Z,71.20
2018-02-03T15:09:37.269Z,71.00
2018-02-03T15:12:05.037Z,70.80
2018-02-03T15:14:32.666Z,71.10
2018-02-03T15:17:01.192Z,70.80
2018-02-03T15:19:28.880Z,70.80
2018-02-03T15:21:56.524Z,70.60
2018-02-03T15:24:24.175Z,70.40
2018-02-03T15:26:52.682Z,70.00
2018-02-03T15:29:20.205Z,69.90
2018-02-03T15:31:47.672Z,69.70
2018-02-03T15:34:15.153Z,69.00
2018-02-03T15:36:42.611Z,69.90
2018-02-03T15:39:10.059Z,69.40
2018-02-03T15:41:37.553Z,69.10
2018-02-03T15:44:05.006Z,69.20
2018-02-03T15:46:32.459Z,69.40
2018-02-03T15:48:59.936Z,69.30
2018-02-03T15:51:27.415Z,69.40
2018-02-03T15:53:54.870Z,69.80
2018-02-03T15:56:23.129Z,69.60
2018-02-03T15:58:50.596Z,69.60
2018-02-03T16:01:18.070Z,69.80
2018-02-03T16:03:45.558Z,70.00
2018-02-03T16:06:13.017Z,70.20
2018-02-03T16:08:40.481Z,70.20
2018-02-03T16:11:07.975Z,70.40
2018-02-03T16:13:35.435Z,70.40
2018-02-03T16:16:02.881Z,70.60
2018-02-03T16:18:30.353Z,70.60
2018-02-03T16:20:57.813Z,70.30
2018-02-03T16:23:26.234Z,70.70
2018-02-03T16:25:53.678Z,70.40
2018-02-03T16:28:21.213Z,70.40
2018-02-03T16:30:49.471Z,71.50
2018-02-03T16:33:16.950Z,70.80
2018-02-03T16:35:45.248Z,71.10
2018-02-03T16:38:12.701Z,71.00
2018-02-03T16:40:40.962Z,71.40
2018-02-03T16:43:08.461Z,71.30
2018-02-03T16:45:35.921Z,71.50
2018-02-03T16:48:03.385Z,71.60
2018-02-03T16:50:30.876Z,71.60
2018-02-03T16:52:58.355Z,71.60
2018-02-03T16:55:26.590Z,72.10
2018-02-03T16:57:54.070Z,72.00
2018-02-03T17:00:21.545Z,72.10
2018-02-03T17:02:49.996Z,72.00
2018-02-03T17:05:17.536Z,72.00
2018-02-03T17:07:45.021Z,72.40
2018-02-03T17:10:12.501Z,72.50
2018-02-03T17:12:40.343Z,72.70
2018-02-03T17:15:09.868Z,73.30
2018-02-03T17:17:37.621Z,73.30
2018-02-03T17:20:05.370Z,73.40
2018-02-03T17:22:33.653Z,73.70
2018-02-03T17:25:01.121Z,73.70
2018-02-03T17:27:28.808Z,73.80
2018-02-03T17:29:57.415Z,74.10
2018-02-03T17:32:24.901Z,74.00
2018-02-03T17:34:52.704Z,74.00
2018-02-03T17:37:25.893Z,74.10
2018-02-03T17:39:53.802Z,74.20
2018-02-03T17:42:21.594Z,74.20
2018-02-03T17:44:49.118Z,74.30
2018-02-03T17:47:16.596Z,74.40
2018-02-03T17:49:44.138Z,74.40
2018-02-03T17:52:11.663Z,74.40
2018-02-03T17:54:39.142Z,75.20
2018-02-03T17:57:12.813Z,74.40
2018-02-03T17:59:41.385Z,74.50
2018-02-03T18:02:08.884Z,74.40
2018-02-03T18:04:36.359Z,74.40
2018-02-03T18:07:05.628Z,74.50
2018-02-03T18:09:33.108Z,74.30
2018-02-03T18:12:00.782Z,74.30
2018-02-03T18:14:29.390Z,74.30
2018-02-03T18:16:56.999Z,74.20
2018-02-03T18:19:24.599Z,74.00
2018-02-03T18:21:52.281Z,74.10
2018-02-03T18:24:19.748Z,74.20
2018-02-03T18:26:47.242Z,75.10
2018-02-03T18:29:14.921Z,74.50
2018-02-03T18:31:43.382Z,74.60
2018-02-03T18:34:11.164Z,74.50
2018-02-03T18:36:38.921Z,74.40
2018-02-03T18:39:06.660Z,74.40
2018-02-03T18:41:34.440Z,74.50
2018-02-03T18:44:01.929Z,74.50
2018-02-03T18:46:30.226Z,75.40
2018-02-03T18:48:57.842Z,74.60
2018-02-03T18:51:25.498Z,74.40
2018-02-03T18:53:53.153Z,74.40
2018-02-03T18:56:21.541Z,75.20
2018-02-03T18:58:48.997Z,74.60
2018-02-03T19:01:16.481Z,74.40
2018-02-03T19:03:44.725Z,74.40
2018-02-03T19:06:12.193Z,74.40
2018-02-03T19:08:39.676Z,74.40
2018-02-03T19:11:07.128Z,74.40
2018-02-03T19:13:34.629Z,74.40
2018-02-03T19:16:02.103Z,74.40
2018-02-03T19:18:30.547Z,74.30
2018-02-03T19:20:58.030Z,74.30
2018-02-03T19:23:25.521Z,74.20
2018-02-03T19:25:52.984Z,74.30
2018-02-03T19:28:20.450Z,74.60
2018-02-03T19:30:47.922Z,74.60
2018-02-03T19:33:16.173Z,74.40
2018-02-03T19:35:43.666Z,74.40
2018-02-03T19:38:11.913Z,74.40
2018-02-03T19:40:39.384Z,74.30
2018-02-03T19:43:06.944Z,74.20
2018-02-03T19:45:34.408Z,73.90
2018-02-03T19:48:01.891Z,73.90
2018-02-03T19:50:29.349Z,74.00
2018-02-03T19:52:56.833Z,74.20
2018-02-03T19:55:24.301Z,74.20
2018-02-03T19:57:51.748Z,74.20
2018-02-03T20:00:19.370Z,73.90
2018-02-03T20:02:46.835Z,73.80
2018-02-03T20:05:14.309Z,74.00
2018-02-03T20:07:41.773Z,74.00
2018-02-03T20:10:09.342Z,73.80
2018-02-03T20:12:36.809Z,73.70
2018-02-03T20:15:04.277Z,73.60
2018-02-03T20:17:31.767Z,73.50
2018-02-03T20:19:59.994Z,73.50
2018-02-03T20:22:27.485Z,73.50
2018-02-03T20:24:54.949Z,73.50
2018-02-03T20:27:22.433Z,73.50
2018-02-03T20:29:49.892Z,73.50
2018-02-03T20:32:17.370Z,73.60
2018-02-03T20:34:44.845Z,73.40
2018-02-03T20:37:12.329Z,73.40
2018-02-03T20:39:39.848Z,73.30
2018-02-03T20:42:08.041Z,72.90
2018-02-03T20:44:35.517Z,72.90
2018-02-03T20:47:02.978Z,72.80
2018-02-03T20:49:30.465Z,72.60
2018-02-03T20:51:58.684Z,72.50
2018-02-03T20:54:26.181Z,72.50
2018-02-03T20:56:53.676Z,72.50
2018-02-03T20:59:21.141Z,72.60
2018-02-03T21:01:48.599Z,72.50
2018-02-03T21:04:16.083Z,72.50
2018-02-03T21:06:43.543Z,72.50
2018-02-03T21:09:11.017Z,72.00
2018-02-03T21:11:38.477Z,71.70
2018-02-03T21:14:05.958Z,71.50
2018-02-03T21:16:33.440Z,71.30
2018-02-03T21:19:00.893Z,71.30
2018-02-03T21:21:29.167Z,71.20
2018-02-03T21:23:56.711Z,71.20
2018-02-03T21:26:24.233Z,70.90
2018-02-03T21:28:51.754Z,71.00
2018-02-03T21:31:19.228Z,71.20
2018-02-03T21:33:46.769Z,71.10
2018-02-03T21:36:14.286Z,70.80
2018-02-03T21:38:41.875Z,70.80
2018-02-03T21:41:09.410Z,71.10
2018-02-03T21:43:36.934Z,71.20
2018-02-03T21:46:04.430Z,72.10
2018-02-03T21:48:32.032Z,71.20
2018-02-03T21:51:00.274Z,71.20
2018-02-03T21:53:27.865Z,71.20
2018-02-03T21:55:55.321Z,71.30
2018-02-03T21:58:23.625Z,71.60
2018-02-03T22:00:51.097Z,71.60
2018-02-03T22:03:18.670Z,71.50
2018-02-03T22:05:46.154Z,71.50
2018-02-03T22:08:13.766Z,71.50
2018-02-03T22:10:41.290Z,71.20
2018-02-03T22:13:09.636Z,71.20
2018-02-03T22:15:37.172Z,71.20
2018-02-03T22:18:04.705Z,71.10
2018-02-03T22:20:32.201Z,70.90
2018-02-03T22:22:59.783Z,70.90
2018-02-03T22:25:27.242Z,70.90
2018-02-03T22:27:54.862Z,70.80
2018-02-03T22:30:22.350Z,70.70
2018-02-03T22:32:50.071Z,70.50
2018-02-03T22:35:17.938Z,70.50
2018-02-03T22:37:45.667Z,70.50
2018-02-03T22:40:13.515Z,70.30
2018-02-03T22:42:41.281Z,70.20
2018-02-03T22:45:08.950Z,70.30
2018-02-03T22:47:37.537Z,70.30
2018-02-03T22:50:05.139Z,70.30
2018-02-03T22:52:33.615Z,70.20
2018-02-03T22:55:02.074Z,70.20
2018-02-03T22:57:29.766Z,70.20
2018-02-03T22:59:57.605Z,70.10
2018-02-03T23:02:31.041Z,69.90
2018-02-03T23:04:58.686Z,69.40
2018-02-03T23:07:26.412Z,69.30
2018-02-03T23:09:54.865Z,69.20
2018-02-03T23:12:22.883Z,69.20
2018-02-03T23:14:50.631Z,69.20
2018-02-03T23:17:18.323Z,68.70
2018-02-03T23:19:46.664Z,68.40
2018-02-03T23:22:14.473Z,68.40
2018-02-03T23:24:43.038Z,68.00
2018-02-03T23:27:10.752Z,67.90
2018-02-03T23:29:38.460Z,67.90
2018-02-03T23:32:06.072Z,68.00
2018-02-03T23:34:33.773Z,67.70
2018-02-03T23:37:02.078Z,67.90
2018-02-03T23:39:30.731Z,67.80
2018-02-03T23:41:58.320Z,67.70
2018-02-03T23:44:26.166Z,67.70
2018-02-03T23:46:53.914Z,67.80
2018-02-03T23:49:21.730Z,67.80
2018-02-03T23:51:50.217Z,67.60
2018-02-03T23:54:18.666Z,67.40
2018-02-03T23:56:46.394Z,67.30
2018-02-03T23:59:14.370Z,67.40
